createdAt,value
2022-12-08T00:01:45.174Z,98860.58
2022-12-08T00:04:13.556Z,98858.48
2022-12-08T00:07:02.964Z,98860.16
2022-12-08T00:09:38.240Z,98858.95
2022-12-08T00:12:13.161Z,98858.73
2022-12-08T00:14:44.971Z,98861.66
2022-12-08T00:17:14.576Z,98865.29
2022-12-08T00:19:43.509Z,98865.17
2022-12-08T00:22:13.338Z,98868.67
2022-12-08T00:24:44.952Z,98864.54
2022-12-08T00:27:15.330Z,98865.88
2022-12-08T00:29:45.118Z,98869.34
2022-12-08T00:32:14.708Z,98872.22
2022-12-08T00:34:42.824Z,98872.38
2022-12-08T00:37:10.918Z,98878.02
2022-12-08T00:39:38.950Z,98878.69
2022-12-08T00:42:12.759Z,98878.98
2022-12-08T00:44:42.409Z,98877.43
2022-12-08T00:47:11.605Z,98876.45
2022-12-08T00:49:39.661Z,98881.27
2022-12-08T00:52:08.157Z,98878.29
2022-12-08T00:54:36.649Z,98882.23
2022-12-08T00:57:04.722Z,98882.89
2022-12-08T00:59:32.832Z,98879.24
2022-12-08T01:02:00.904Z,98879.69
2022-12-08T01:04:29.003Z,98885.14
2022-12-08T01:06:57.048Z,98887.99
2022-12-08T01:09:25.083Z,98887.63
2022-12-08T01:11:53.116Z,98893.02
2022-12-08T01:14:21.298Z,98893.02
2022-12-08T01:16:49.393Z,98896.06
2022-12-08T01:19:18.121Z,98902.92
2022-12-08T01:21:47.394Z,98903.44
2022-12-08T01:24:18.623Z,98902.52
2022-12-08T01:26:48.322Z,98900.60
2022-12-08T01:29:16.831Z,98899.35
2022-12-08T01:31:45.085Z,98899.77
2022-12-08T01:34:13.319Z,98903.66
2022-12-08T01:36:42.421Z,98897.43
2022-12-08T01:39:19.208Z,98898.39
2022-12-08T01:41:47.870Z,98899.06
2022-12-08T01:44:15.917Z,98895.20
2022-12-08T01:46:45.901Z,98895.31
2022-12-08T01:49:35.357Z,98893.23
2022-12-08T01:52:14.450Z,98894.45
2022-12-08T01:54:49.805Z,98899.29
2022-12-08T01:57:30.813Z,98896.20
2022-12-08T02:00:10.545Z,98894.79
2022-12-08T02:02:54.006Z,98897.86
2022-12-08T02:05:25.193Z,98899.17
2022-12-08T02:07:54.670Z,98904.88
2022-12-08T02:10:28.339Z,98902.02
2022-12-08T02:12:59.313Z,98900.91
2022-12-08T02:15:58.671Z,98901.03
2022-12-08T02:18:29.736Z,98900.09
2022-12-08T02:21:09.020Z,98901.16
2022-12-08T02:24:08.058Z,98899.08
2022-12-08T02:26:38.791Z,98899.88
2022-12-08T02:29:18.745Z,98902.59
2022-12-08T02:31:56.919Z,98902.02
2022-12-08T02:34:43.893Z,98904.10
2022-12-08T02:37:33.005Z,98904.12
2022-12-08T02:40:20.117Z,98904.65
2022-12-08T02:43:00.809Z,98902.79
2022-12-08T02:45:38.845Z,98906.08
2022-12-08T02:48:09.338Z,98911.97
2022-12-08T02:50:37.368Z,98909.52
2022-12-08T02:55:42.888Z,98910.00
2022-12-08T02:58:20.962Z,98911.84
2022-12-08T03:01:11.424Z,98914.23
2022-12-08T03:04:05.856Z,98910.95
2022-12-08T03:06:58.808Z,98908.97
2022-12-08T03:09:52.981Z,98915.23
2022-12-08T03:12:30.785Z,98913.45
2022-12-08T03:15:06.465Z,98911.58
2022-12-08T03:17:36.868Z,98914.55
2022-12-08T03:20:12.425Z,98916.99
2022-12-08T03:22:42.322Z,98918.06
2022-12-08T03:25:15.135Z,98919.45
2022-12-08T03:27:44.092Z,98919.59
2022-12-08T03:30:12.792Z,98917.98
2022-12-08T03:32:53.044Z,98916.52
2022-12-08T03:35:25.324Z,98917.20
2022-12-08T03:38:03.814Z,98914.58
2022-12-08T03:40:31.926Z,98917.50
2022-12-08T03:43:00.389Z,98915.52
2022-12-08T03:45:28.504Z,98920.20
2022-12-08T03:47:56.792Z,98919.11
2022-12-08T03:50:25.290Z,98921.51
2022-12-08T03:52:53.349Z,98917.54
2022-12-08T03:55:21.738Z,98916.15
2022-12-08T03:57:49.716Z,98914.74
2022-12-08T04:00:18.302Z,98918.16
2022-12-08T04:02:46.449Z,98917.77
2022-12-08T04:05:14.670Z,98911.81
2022-12-08T04:07:43.720Z,98918.63
2022-12-08T04:10:11.834Z,98912.36
2022-12-08T04:12:39.909Z,98916.23
2022-12-08T04:15:09.088Z,98916.73
2022-12-08T04:17:37.095Z,98921.20
2022-12-08T04:20:06.427Z,98923.09
2022-12-08T04:22:34.662Z,98925.67
2022-12-08T04:25:03.043Z,98924.98
2022-12-08T04:27:31.106Z,98925.80
2022-12-08T04:29:59.126Z,98922.97
2022-12-08T04:32:27.158Z,98920.91
2022-12-08T04:34:55.170Z,98927.10
2022-12-08T04:37:23.194Z,98925.17
2022-12-08T04:39:51.228Z,98922.04
2022-12-08T04:42:19.290Z,98920.25
2022-12-08T04:44:47.345Z,98917.29
2022-12-08T04:47:15.468Z,98916.54
2022-12-08T04:49:43.627Z,98918.55
2022-12-08T04:52:11.660Z,98918.22
2022-12-08T04:54:39.677Z,98920.23
2022-12-08T04:57:07.719Z,98920.55
2022-12-08T04:59:36.014Z,98920.52
2022-12-08T05:02:04.403Z,98922.52
2022-12-08T05:04:32.753Z,98920.91
2022-12-08T05:07:00.818Z,98925.35
2022-12-08T05:09:28.985Z,98923.60
2022-12-08T05:11:57.451Z,98919.23
2022-12-08T05:14:25.473Z,98916.91
2022-12-08T05:16:53.701Z,98916.40
2022-12-08T05:19:21.730Z,98917.84
2022-12-08T05:21:49.802Z,98920.00
2022-12-08T05:24:17.830Z,98922.60
2022-12-08T05:26:45.844Z,98921.73
2022-12-08T05:29:13.873Z,98920.52
2022-12-08T05:31:42.030Z,98921.02
2022-12-08T05:34:10.126Z,98922.69
2022-12-08T05:36:38.148Z,98922.33
2022-12-08T05:39:06.247Z,98924.23
2022-12-08T05:41:34.290Z,98927.12
2022-12-08T05:44:02.401Z,98929.69
2022-12-08T05:46:30.588Z,98937.86
2022-12-08T05:49:02.894Z,98936.77
2022-12-08T05:51:31.167Z,98940.94
2022-12-08T05:53:59.347Z,98947.13
2022-12-08T05:56:27.401Z,98942.96
2022-12-08T05:58:55.510Z,98941.52
2022-12-08T06:01:26.403Z,98939.45
2022-12-08T06:03:55.544Z,98944.16
2022-12-08T06:06:23.714Z,98946.97
2022-12-08T06:08:52.347Z,98949.76
2022-12-08T06:11:23.287Z,98954.27
2022-12-08T06:13:51.520Z,98951.89
2022-12-08T06:16:19.598Z,98948.95
2022-12-08T06:18:47.868Z,98948.11
2022-12-08T06:21:16.814Z,98946.02
2022-12-08T06:23:47.593Z,98949.29
2022-12-08T06:26:17.044Z,98954.61
2022-12-08T06:28:45.377Z,98959.95
2022-12-08T06:31:21.769Z,98958.19
2022-12-08T06:33:50.676Z,98964.00
2022-12-08T06:36:21.305Z,98960.66
2022-12-08T06:38:49.622Z,98959.05
2022-12-08T06:41:18.275Z,98962.81
2022-12-08T06:43:46.646Z,98965.48
2022-12-08T06:46:18.830Z,98964.14
2022-12-08T06:48:47.668Z,98966.60
2022-12-08T06:51:19.301Z,98972.20
2022-12-08T06:53:47.633Z,98970.56
2022-12-08T06:56:16.955Z,98964.76
2022-12-08T06:58:48.964Z,98963.37
2022-12-08T07:01:20.739Z,98958.55
2022-12-08T07:03:49.007Z,98963.33
2022-12-08T07:06:21.691Z,98969.14
2022-12-08T07:08:50.567Z,98967.25
2022-12-08T07:11:21.910Z,98960.70
2022-12-08T07:13:50.949Z,98962.20
2022-12-08T07:16:19.107Z,98969.20
2022-12-08T07:18:47.246Z,98976.26
2022-12-08T07:21:16.441Z,98980.69
2022-12-08T07:23:54.294Z,98980.02
2022-12-08T07:26:27.108Z,98987.20
2022-12-08T07:28:55.253Z,98985.88
2022-12-08T07:31:25.960Z,98981.78
2022-12-08T07:33:55.474Z,98980.85
2022-12-08T07:36:24.585Z,98979.89
2022-12-08T07:38:55.687Z,98975.95
2022-12-08T07:41:25.716Z,98973.95
2022-12-08T07:43:54.439Z,98977.23
2022-12-08T07:46:25.141Z,98983.94
2022-12-08T07:48:54.808Z,98981.51
2022-12-08T07:51:24.966Z,98980.44
2022-12-08T07:53:54.821Z,98979.40
2022-12-08T07:56:24.148Z,98980.39
2022-12-08T07:58:52.272Z,98983.11
2022-12-08T08:01:28.215Z,98994.29
2022-12-08T08:03:58.436Z,98991.17
2022-12-08T08:06:26.482Z,98991.00
2022-12-08T08:08:55.012Z,98990.17
2022-12-08T08:11:23.716Z,98989.30
2022-12-08T08:13:52.482Z,98987.34
2022-12-08T08:16:21.546Z,98988.27
2022-12-08T08:18:51.081Z,98989.50
2022-12-08T08:24:08.948Z,98988.54
2022-12-08T08:26:37.692Z,98988.70
2022-12-08T08:29:05.808Z,98989.27
2022-12-08T08:31:33.897Z,98994.45
2022-12-08T08:34:06.598Z,98994.97
2022-12-08T08:36:34.910Z,98998.23
2022-12-08T08:39:04.597Z,98999.42
2022-12-08T08:41:33.057Z,99000.58
2022-12-08T08:44:01.374Z,98999.73
2022-12-08T08:46:29.556Z,99000.33
2022-12-08T08:48:57.800Z,98998.53
2022-12-08T08:51:25.841Z,98995.51
2022-12-08T08:53:53.920Z,98996.95
2022-12-08T08:56:22.535Z,98999.78
2022-12-08T08:58:52.737Z,98995.74
2022-12-08T09:01:24.654Z,98991.52
2022-12-08T09:03:53.700Z,98989.69
2022-12-08T09:06:22.556Z,98989.91
2022-12-08T09:08:51.220Z,98989.20
2022-12-08T09:11:19.311Z,98988.18
2022-12-08T09:13:52.170Z,98985.99
2022-12-08T09:16:21.485Z,98985.37
2022-12-08T09:18:49.803Z,98985.44
2022-12-08T09:21:23.043Z,98982.88
2022-12-08T09:23:54.076Z,98981.55
2022-12-08T09:26:23.457Z,98978.10
2022-12-08T09:28:53.612Z,98972.94
2022-12-08T09:31:23.751Z,98970.89
2022-12-08T09:33:52.065Z,98967.12
2022-12-08T09:36:20.745Z,98966.09
2022-12-08T09:38:50.460Z,98961.96
2022-12-08T09:41:36.480Z,98963.52
2022-12-08T09:44:32.315Z,98966.30
2022-12-08T09:47:03.875Z,98960.78
2022-12-08T09:49:47.263Z,98961.88
2022-12-08T09:52:30.207Z,98957.48
2022-12-08T09:55:03.929Z,98955.21
2022-12-08T09:57:32.225Z,98953.23
2022-12-08T10:00:05.478Z,98950.16
2022-12-08T10:02:34.342Z,98952.11
2022-12-08T10:05:02.557Z,98952.52
2022-12-08T10:08:06.351Z,98950.67
2022-12-08T10:10:40.596Z,98948.34
2022-12-08T10:13:14.778Z,98944.94
2022-12-08T10:15:58.587Z,98944.32
2022-12-08T10:18:31.090Z,98939.55
2022-12-08T10:21:20.672Z,98940.62
2022-12-08T10:23:52.714Z,98936.02
2022-12-08T10:26:22.203Z,98932.75
2022-12-08T10:28:51.033Z,98931.73
2022-12-08T10:31:24.994Z,98930.39
2022-12-08T10:33:59.025Z,98927.15
2022-12-08T10:36:49.196Z,98929.76
2022-12-08T10:39:35.426Z,98927.74
2022-12-08T10:42:18.563Z,98922.05
2022-12-08T10:44:54.803Z,98926.20
2022-12-08T10:47:26.166Z,98925.83
2022-12-08T10:50:21.270Z,98924.10
2022-12-08T10:53:09.551Z,98922.30
2022-12-08T10:55:40.636Z,98920.79
2022-12-08T10:58:27.249Z,98920.11
2022-12-08T11:01:19.890Z,98918.77
2022-12-08T11:03:55.846Z,98916.58
2022-12-08T11:06:31.192Z,98906.97
2022-12-08T11:09:02.377Z,98903.36
2022-12-08T11:12:01.041Z,98907.55
2022-12-08T11:14:32.728Z,98910.82
2022-12-08T11:17:08.349Z,98907.01
2022-12-08T11:19:41.682Z,98906.45
2022-12-08T11:22:31.214Z,98903.13
2022-12-08T11:25:12.451Z,98903.24
2022-12-08T11:27:44.561Z,98899.95
2022-12-08T11:30:22.067Z,98901.82
2022-12-08T11:33:22.491Z,98898.34
2022-12-08T11:35:55.885Z,98904.18
2022-12-08T11:38:26.741Z,98903.48
2022-12-08T11:40:57.342Z,98901.19
2022-12-08T11:43:34.535Z,98897.89
2022-12-08T11:46:25.153Z,98900.80
2022-12-08T11:49:05.985Z,98901.64
2022-12-08T11:51:45.846Z,98903.36
2022-12-08T11:54:46.952Z,98908.71
2022-12-08T11:57:16.748Z,98906.64
2022-12-08T11:59:49.670Z,98904.04
2022-12-08T12:02:20.600Z,98900.56
2022-12-08T12:04:54.886Z,98897.58
2022-12-08T12:07:36.279Z,98900.93
2022-12-08T12:10:22.430Z,98899.94
2022-12-08T12:13:08.857Z,98896.77
2022-12-08T12:15:39.948Z,98895.03
2022-12-08T12:18:22.782Z,98898.86
2022-12-08T12:20:58.747Z,98894.74
2022-12-08T12:23:38.313Z,98899.24
2022-12-08T12:26:09.790Z,98901.52
2022-12-08T12:28:38.028Z,98906.16
2022-12-08T12:31:10.396Z,98900.80
2022-12-08T12:33:39.053Z,98905.61
2022-12-08T12:36:09.500Z,98899.23
2022-12-08T12:39:03.448Z,98902.15
2022-12-08T12:41:55.331Z,98896.95
2022-12-08T12:44:43.665Z,98896.77
2022-12-08T12:47:15.117Z,98888.79
2022-12-08T12:49:46.313Z,98886.08
2022-12-08T12:52:17.049Z,98888.81
2022-12-08T12:55:10.986Z,98883.09
2022-12-08T12:57:50.072Z,98876.49
2022-12-08T13:00:21.209Z,98872.67
2022-12-08T13:02:51.223Z,98872.48
2022-12-08T13:05:27.521Z,98874.70
2022-12-08T13:08:16.637Z,98879.06
2022-12-08T13:11:10.050Z,98879.02
2022-12-08T13:13:39.233Z,98878.52
2022-12-08T13:16:18.849Z,98877.50
2022-12-08T13:18:50.665Z,98876.00
2022-12-08T13:21:24.029Z,98878.80
2022-12-08T13:24:17.473Z,98876.27
2022-12-08T13:26:48.252Z,98869.21
2022-12-08T13:29:26.620Z,98867.64
2022-12-08T13:31:57.428Z,98869.54
2022-12-08T13:34:33.926Z,98869.16
2022-12-08T13:37:10.962Z,98873.46
2022-12-08T13:39:39.022Z,98879.64
2022-12-08T13:42:12.366Z,98874.93
2022-12-08T13:48:23.330Z,98868.49
2022-12-08T13:53:00.043Z,98872.94
2022-12-08T13:54:56.098Z,98870.63
2022-12-08T13:57:06.770Z,98869.02
2022-12-08T13:59:34.460Z,98867.41
2022-12-08T14:02:20.878Z,98869.77
2022-12-08T14:07:40.347Z,98869.67
2022-12-08T14:10:19.866Z,98872.05
2022-12-08T14:13:02.861Z,98870.86
2022-12-08T14:15:38.376Z,98871.70
2022-12-08T14:18:23.526Z,98870.86
2022-12-08T14:21:20.753Z,98870.17
2022-12-08T14:23:49.687Z,98864.27
2022-12-08T14:26:18.118Z,98866.14
2022-12-08T14:28:46.248Z,98864.85
2022-12-08T14:31:14.915Z,98865.66
2022-12-08T14:33:43.252Z,98862.66
2022-12-08T14:36:14.773Z,98862.61
2022-12-08T14:38:42.933Z,98858.11
2022-12-08T14:41:12.534Z,98854.82
2022-12-08T14:43:43.452Z,98859.23
2022-12-08T14:46:24.485Z,98858.86
2022-12-08T14:48:53.777Z,98861.02
2022-12-08T14:51:21.763Z,98856.52
2022-12-08T14:54:02.866Z,98853.70
2022-12-08T14:56:43.456Z,98855.77
2022-12-08T14:59:17.551Z,98852.61
2022-12-08T15:01:46.990Z,98856.73
2022-12-08T15:04:18.107Z,98852.77
2022-12-08T15:06:54.553Z,98852.59
2022-12-08T15:09:32.856Z,98848.80
2022-12-08T15:12:26.641Z,98848.71
2022-12-08T15:15:03.084Z,98850.05
2022-12-08T15:17:42.311Z,98852.22
2022-12-08T15:20:28.815Z,98848.89
2022-12-08T15:23:02.197Z,98847.50
2022-12-08T15:25:30.514Z,98846.27
2022-12-08T15:27:58.530Z,98846.91
2022-12-08T15:30:26.663Z,98848.79
2022-12-08T15:32:56.294Z,98850.53
2022-12-08T15:35:24.571Z,98850.28
2022-12-08T15:37:52.693Z,98852.70
2022-12-08T15:40:27.397Z,98852.66
2022-12-08T15:42:55.480Z,98856.63
2022-12-08T15:45:28.869Z,98858.00
2022-12-08T15:47:57.391Z,98861.80
2022-12-08T15:50:25.469Z,98861.97
2022-12-08T15:52:53.586Z,98855.60
2022-12-08T15:55:21.925Z,98854.02
2022-12-08T15:58:51.198Z,98848.84
2022-12-08T16:00:57.896Z,98849.11
2022-12-08T16:07:04.688Z,98854.91
2022-12-08T16:09:33.027Z,98852.28
2022-12-08T16:12:20.198Z,98850.73
2022-12-08T16:17:37.726Z,98850.61
2022-12-08T16:20:11.488Z,98846.64
2022-12-08T16:23:03.687Z,98837.30
2022-12-08T16:25:36.379Z,98830.41
2022-12-08T16:28:45.367Z,98831.92
2022-12-08T16:31:02.604Z,98831.91
2022-12-08T16:33:30.636Z,98829.46
2022-12-08T16:35:58.646Z,98836.51
2022-12-08T16:38:26.747Z,98834.56
2022-12-08T16:41:13.462Z,98835.67
2022-12-08T16:43:41.572Z,98837.31
2022-12-08T16:46:18.992Z,98839.52
2022-12-08T16:48:47.161Z,98840.73
2022-12-08T16:51:21.981Z,98839.27
2022-12-08T16:53:53.470Z,98837.39
2022-12-08T16:56:27.511Z,98841.86
2022-12-08T16:58:58.689Z,98846.22
2022-12-08T17:01:26.806Z,98848.66
2022-12-08T17:04:29.105Z,98843.34
2022-12-08T17:06:44.280Z,98840.98
2022-12-08T17:09:12.328Z,98836.10
2022-12-08T17:11:43.428Z,98830.45
2022-12-08T17:14:13.302Z,98828.77
2022-12-08T17:16:41.617Z,98827.33
2022-12-08T17:19:12.085Z,98834.33
2022-12-08T17:21:40.140Z,98833.64
2022-12-08T17:24:09.901Z,98830.05
2022-12-08T17:26:37.980Z,98833.34
2022-12-08T17:29:06.088Z,98831.20
2022-12-08T17:31:34.282Z,98830.54
2022-12-08T17:34:04.563Z,98828.08
2022-12-08T17:36:32.867Z,98828.41
2022-12-08T17:39:01.417Z,98826.37
2022-12-08T17:41:30.609Z,98829.33
2022-12-08T17:43:58.656Z,98827.50
2022-12-08T17:46:26.846Z,98823.21
2022-12-08T17:48:54.905Z,98824.20
2022-12-08T17:51:23.002Z,98822.81
2022-12-08T17:53:51.421Z,98823.96
2022-12-08T17:56:21.980Z,98826.86
2022-12-08T17:58:54.638Z,98824.91
2022-12-08T18:01:24.548Z,98823.45
2022-12-08T18:03:52.750Z,98821.17
2022-12-08T18:06:22.348Z,98813.48
2022-12-08T18:08:51.769Z,98811.42
2022-12-08T18:11:20.414Z,98811.19
2022-12-08T18:13:50.065Z,98806.85
2022-12-08T18:16:20.566Z,98803.06
2022-12-08T18:18:49.162Z,98807.04
2022-12-08T18:21:23.284Z,98804.97
2022-12-08T18:23:52.090Z,98803.77
2022-12-08T18:26:21.057Z,98803.08
2022-12-08T18:28:49.609Z,98801.70
2022-12-08T18:31:20.190Z,98800.98
2022-12-08T18:33:49.495Z,98801.75
2022-12-08T18:36:23.273Z,98796.91
2022-12-08T18:38:51.948Z,98792.79
2022-12-08T18:41:26.281Z,98787.75
2022-12-08T18:43:55.839Z,98783.85
2022-12-08T18:46:24.684Z,98784.20
2022-12-08T18:48:53.075Z,98780.86
2022-12-08T18:51:23.766Z,98776.61
2022-12-08T18:53:52.848Z,98775.25
2022-12-08T18:56:29.383Z,98770.25
2022-12-08T18:59:03.683Z,98769.57
2022-12-08T19:01:33.855Z,98767.61
2022-12-08T19:04:27.268Z,98766.70
2022-12-08T19:06:54.089Z,98771.85
2022-12-08T19:09:22.884Z,98764.63
2022-12-08T19:11:50.896Z,98762.52
2022-12-08T19:14:22.721Z,98762.30
2022-12-08T19:16:55.863Z,98762.13
2022-12-08T19:19:24.843Z,98755.41
2022-12-08T19:21:53.457Z,98755.56
2022-12-08T19:24:21.516Z,98753.73
2022-12-08T19:26:49.652Z,98758.91
2022-12-08T19:29:17.773Z,98753.70
2022-12-08T19:31:46.330Z,98753.86
2022-12-08T19:34:15.490Z,98755.59
2022-12-08T19:36:44.065Z,98754.55
2022-12-08T19:39:36.563Z,98755.42
2022-12-08T19:42:30.851Z,98756.48
2022-12-08T19:45:13.321Z,98755.77
2022-12-08T19:47:42.386Z,98754.38
2022-12-08T19:50:31.767Z,98753.83
2022-12-08T19:53:00.772Z,98751.80
2022-12-08T19:55:29.584Z,98749.73
2022-12-08T19:57:58.417Z,98745.64
2022-12-08T20:00:26.484Z,98744.48
2022-12-08T20:02:54.591Z,98739.66
2022-12-08T20:05:23.190Z,98739.14
2022-12-08T20:07:55.629Z,98734.31
2022-12-08T20:10:35.654Z,98743.76
2022-12-08T20:13:24.041Z,98745.73
2022-12-08T20:15:52.919Z,98741.45
2022-12-08T20:18:21.672Z,98736.16
2022-12-08T20:20:49.858Z,98733.21
2022-12-08T20:23:18.194Z,98738.27
2022-12-08T20:25:47.963Z,98740.39
2022-12-08T20:28:16.226Z,98735.44
2022-12-08T20:30:47.113Z,98727.64
2022-12-08T20:33:19.538Z,98729.87
2022-12-08T20:35:48.279Z,98732.98
2022-12-08T20:38:16.596Z,98732.47
2022-12-08T20:40:47.404Z,98730.92
2022-12-08T20:43:15.458Z,98734.86
2022-12-08T20:45:43.485Z,98732.62
2022-12-08T20:48:11.894Z,98738.13
2022-12-08T20:50:40.073Z,98739.70
2022-12-08T20:53:08.942Z,98742.63
2022-12-08T20:55:40.088Z,98734.55
2022-12-08T20:58:08.281Z,98737.30
2022-12-08T21:00:36.622Z,98738.70
2022-12-08T21:03:04.879Z,98732.44
2022-12-08T21:05:35.738Z,98733.16
2022-12-08T21:08:04.186Z,98732.08
2022-12-08T21:10:36.852Z,98726.39
2022-12-08T21:13:09.042Z,98727.30
2022-12-08T21:15:37.569Z,98727.48
2022-12-08T21:18:05.917Z,98726.86
2022-12-08T21:20:35.246Z,98726.73
2022-12-08T21:23:03.456Z,98738.64
2022-12-08T21:25:31.502Z,98735.33
2022-12-08T21:27:59.530Z,98734.96
2022-12-08T21:30:27.659Z,98733.73
2022-12-08T21:32:55.964Z,98732.66
2022-12-08T21:35:24.056Z,98728.16
2022-12-08T21:37:52.312Z,98727.13
2022-12-08T21:40:20.506Z,98723.66
2022-12-08T21:42:48.961Z,98722.45
2022-12-08T21:45:20.291Z,98720.02
2022-12-08T21:47:50.117Z,98718.42
2022-12-08T21:50:18.964Z,98716.37
2022-12-08T21:52:49.032Z,98717.92
2022-12-08T21:55:19.153Z,98718.71
2022-12-08T21:57:47.610Z,98722.38
2022-12-08T22:00:17.068Z,98719.61
2022-12-08T22:02:45.720Z,98720.00
2022-12-08T22:05:14.299Z,98717.30
2022-12-08T22:07:42.718Z,98719.21
2022-12-08T22:10:11.751Z,98717.86
2022-12-08T22:12:40.671Z,98716.84
2022-12-08T22:15:11.387Z,98719.45
2022-12-08T22:17:41.431Z,98715.66
2022-12-08T22:20:15.421Z,98710.13
2022-12-08T22:22:44.320Z,98716.83
2022-12-08T22:25:12.835Z,98718.02
2022-12-08T22:27:42.069Z,98718.02
2022-12-08T22:30:12.044Z,98717.98
2022-12-08T22:32:40.878Z,98719.86
2022-12-08T22:35:09.668Z,98718.12
2022-12-08T22:37:37.782Z,98716.39
2022-12-08T22:40:07.373Z,98716.22
2022-12-08T22:42:35.793Z,98713.97
2022-12-08T22:45:04.148Z,98710.02
2022-12-08T22:47:32.310Z,98703.59
2022-12-08T22:50:00.569Z,98699.17
2022-12-08T22:52:28.823Z,98692.27
2022-12-08T22:54:56.946Z,98690.77
2022-12-08T22:57:25.183Z,98689.25
2022-12-08T22:59:53.499Z,98685.67
2022-12-08T23:02:21.550Z,98685.01
2022-12-08T23:04:50.433Z,98686.23
2022-12-08T23:07:18.722Z,98681.06
2022-12-08T23:09:46.792Z,98680.67
2022-12-08T23:12:14.919Z,98681.16
2022-12-08T23:14:43.133Z,98682.71
2022-12-08T23:17:11.310Z,98682.01
2022-12-08T23:19:39.732Z,98676.65
2022-12-08T23:22:07.938Z,98675.38
2022-12-08T23:24:36.244Z,98673.93
2022-12-08T23:27:04.619Z,98676.27
2022-12-08T23:29:41.762Z,98683.63
2022-12-08T23:32:09.889Z,98685.68
2022-12-08T23:34:38.025Z,98684.92
2022-12-08T23:37:06.315Z,98686.69
2022-12-08T23:39:34.825Z,98683.96
2022-12-08T23:42:03.128Z,98680.06
2022-12-08T23:44:31.520Z,98682.86
2022-12-08T23:46:59.742Z,98678.40
2022-12-08T23:49:28.182Z,98679.64
2022-12-08T23:51:56.324Z,98676.90
2022-12-08T23:54:24.810Z,98677.45
2022-12-08T23:56:53.076Z,98673.14
2022-12-08T23:59:21.314Z,98668.80
